sensor_id;sensor_type;location;lat;lon;timestamp;P1;durP1;ratioP1;P2;durP2;ratioP2
73859;SDS011;62197;51.632;13.700;2024-02-15T00:01:18;5.63;;;2.33;;
73859;SDS011;62197;51.632;13.700;2024-02-15T00:03:44;6.82;;;3.03;;
73859;SDS011;62197;51.632;13.700;2024-02-15T00:06:09;9.37;;;2.80;;
73859;SDS011;62197;51.632;13.700;2024-02-15T00:08:34;4.70;;;2.53;;
73859;SDS011;62197;51.632;13.700;2024-02-15T00:11:00;6.03;;;2.83;;
73859;SDS011;62197;51.632;13.700;2024-02-15T00:13:25;5.00;;;2.40;;
73859;SDS011;62197;51.632;13.700;2024-02-15T00:15:50;5.17;;;2.47;;
73859;SDS011;62197;51.632;13.700;2024-02-15T00:18:16;8.83;;;3.03;;
73859;SDS011;62197;51.632;13.700;2024-02-15T00:20:41;4.27;;;1.83;;
73859;SDS011;62197;51.632;13.700;2024-02-15T00:23:06;5.80;;;2.15;;
73859;SDS011;62197;51.632;13.700;2024-02-15T00:25:32;3.85;;;2.08;;
73859;SDS011;62197;51.632;13.700;2024-02-15T00:27:58;5.75;;;4.13;;
73859;SDS011;62197;51.632;13.700;2024-02-15T00:30:25;5.75;;;3.40;;
73859;SDS011;62197;51.632;13.700;2024-02-15T00:32:52;5.50;;;2.22;;
73859;SDS011;62197;51.632;13.700;2024-02-15T00:35:17;5.25;;;2.40;;
73859;SDS011;62197;51.632;13.700;2024-02-15T00:37:43;5.78;;;2.25;;
73859;SDS011;62197;51.632;13.700;2024-02-15T00:40:09;5.68;;;2.72;;
73859;SDS011;62197;51.632;13.700;2024-02-15T00:42:35;4.70;;;2.13;;
73859;SDS011;62197;51.632;13.700;2024-02-15T00:45:01;6.38;;;3.25;;
73859;SDS011;62197;51.632;13.700;2024-02-15T00:47:26;4.82;;;2.58;;
73859;SDS011;62197;51.632;13.700;2024-02-15T00:49:53;6.13;;;2.55;;
73859;SDS011;62197;51.632;13.700;2024-02-15T00:52:18;6.07;;;2.70;;
73859;SDS011;62197;51.632;13.700;2024-02-15T00:54:44;7.43;;;2.37;;
73859;SDS011;62197;51.632;13.700;2024-02-15T00:57:10;5.15;;;2.65;;
73859;SDS011;62197;51.632;13.700;2024-02-15T00:59:36;8.23;;;2.95;;
73859;SDS011;62197;51.632;13.700;2024-02-15T01:02:01;10.23;;;3.33;;
73859;SDS011;62197;51.632;13.700;2024-02-15T01:04:27;5.97;;;3.63;;
73859;SDS011;62197;51.632;13.700;2024-02-15T01:06:53;5.82;;;3.30;;
73859;SDS011;62197;51.632;13.700;2024-02-15T01:09:18;6.30;;;2.40;;
73859;SDS011;62197;51.632;13.700;2024-02-15T01:11:43;4.77;;;2.50;;
73859;SDS011;62197;51.632;13.700;2024-02-15T01:14:09;9.20;;;4.03;;
73859;SDS011;62197;51.632;13.700;2024-02-15T01:16:34;6.65;;;2.70;;
73859;SDS011;62197;51.632;13.700;2024-02-15T01:19:01;6.18;;;2.85;;
73859;SDS011;62197;51.632;13.700;2024-02-15T01:21:26;6.43;;;3.85;;
73859;SDS011;62197;51.632;13.700;2024-02-15T01:23:52;7.45;;;3.25;;
73859;SDS011;62197;51.632;13.700;2024-02-15T01:26:18;6.57;;;2.83;;
73859;SDS011;62197;51.632;13.700;2024-02-15T01:28:44;7.45;;;3.08;;
73859;SDS011;62197;51.632;13.700;2024-02-15T01:31:10;11.07;;;3.27;;
73859;SDS011;62197;51.632;13.700;2024-02-15T01:33:36;6.13;;;2.78;;
73859;SDS011;62197;51.632;13.700;2024-02-15T01:36:02;5.45;;;3.75;;
73859;SDS011;62197;51.632;13.700;2024-02-15T01:38:28;6.65;;;2.88;;
73859;SDS011;62197;51.632;13.700;2024-02-15T01:40:53;6.03;;;2.90;;
73859;SDS011;62197;51.632;13.700;2024-02-15T01:43:19;9.23;;;3.07;;
73859;SDS011;62197;51.632;13.700;2024-02-15T01:45:44;8.00;;;2.70;;
73859;SDS011;62197;51.632;13.700;2024-02-15T01:48:11;8.15;;;3.30;;
73859;SDS011;62197;51.632;13.700;2024-02-15T01:50:38;5.25;;;3.22;;
73859;SDS011;62197;51.632;13.700;2024-02-15T01:53:04;5.97;;;3.60;;
73859;SDS011;62197;51.632;13.700;2024-02-15T01:55:32;9.65;;;3.05;;
73859;SDS011;62197;51.632;13.700;2024-02-15T01:57:58;7.10;;;3.15;;
73859;SDS011;62197;51.632;13.700;2024-02-15T02:00:24;5.97;;;2.80;;
73859;SDS011;62197;51.632;13.700;2024-02-15T02:02:50;7.28;;;3.28;;
73859;SDS011;62197;51.632;13.700;2024-02-15T02:05:18;6.68;;;3.20;;
73859;SDS011;62197;51.632;13.700;2024-02-15T02:07:44;6.57;;;3.17;;
73859;SDS011;62197;51.632;13.700;2024-02-15T02:10:10;7.40;;;3.77;;
73859;SDS011;62197;51.632;13.700;2024-02-15T02:12:39;7.32;;;3.13;;
73859;SDS011;62197;51.632;13.700;2024-02-15T02:15:09;5.47;;;3.08;;
73859;SDS011;62197;51.632;13.700;2024-02-15T02:17:36;6.50;;;3.08;;
73859;SDS011;62197;51.632;13.700;2024-02-15T02:20:01;6.05;;;2.88;;
73859;SDS011;62197;51.632;13.700;2024-02-15T02:22:33;7.22;;;4.60;;
73859;SDS011;62197;51.632;13.700;2024-02-15T02:27:31;7.93;;;3.92;;
73859;SDS011;62197;51.632;13.700;2024-02-15T02:29:57;7.88;;;3.75;;
73859;SDS011;62197;51.632;13.700;2024-02-15T02:32:24;8.18;;;4.63;;
73859;SDS011;62197;51.632;13.700;2024-02-15T02:34:50;7.93;;;3.72;;
73859;SDS011;62197;51.632;13.700;2024-02-15T02:37:16;8.23;;;3.17;;
73859;SDS011;62197;51.632;13.700;2024-02-15T02:39:42;6.23;;;3.17;;
73859;SDS011;62197;51.632;13.700;2024-02-15T02:42:08;8.10;;;3.97;;
73859;SDS011;62197;51.632;13.700;2024-02-15T02:44:33;5.67;;;2.80;;
73859;SDS011;62197;51.632;13.700;2024-02-15T02:46:59;6.63;;;3.72;;
73859;SDS011;62197;51.632;13.700;2024-02-15T02:49:24;7.05;;;3.90;;
73859;SDS011;62197;51.632;13.700;2024-02-15T02:51:50;7.03;;;3.83;;
73859;SDS011;62197;51.632;13.700;2024-02-15T02:54:15;7.63;;;3.30;;
73859;SDS011;62197;51.632;13.700;2024-02-15T02:56:41;7.07;;;4.15;;
73859;SDS011;62197;51.632;13.700;2024-02-15T02:59:08;7.43;;;3.72;;
73859;SDS011;62197;51.632;13.700;2024-02-15T03:01:34;7.38;;;3.58;;
73859;SDS011;62197;51.632;13.700;2024-02-15T03:03:59;8.98;;;3.85;;
73859;SDS011;62197;51.632;13.700;2024-02-15T03:06:26;8.13;;;3.65;;
73859;SDS011;62197;51.632;13.700;2024-02-15T03:08:52;7.28;;;3.85;;
73859;SDS011;62197;51.632;13.700;2024-02-15T03:11:20;7.15;;;3.80;;
73859;SDS011;62197;51.632;13.700;2024-02-15T03:13:46;11.50;;;3.58;;
73859;SDS011;62197;51.632;13.700;2024-02-15T03:16:13;8.55;;;3.60;;
73859;SDS011;62197;51.632;13.700;2024-02-15T03:18:38;8.37;;;4.00;;
73859;SDS011;62197;51.632;13.700;2024-02-15T03:21:03;8.90;;;4.10;;
73859;SDS011;62197;51.632;13.700;2024-02-15T03:23:29;7.63;;;3.63;;
73859;SDS011;62197;51.632;13.700;2024-02-15T03:25:54;7.28;;;3.35;;
73859;SDS011;62197;51.632;13.700;2024-02-15T03:28:20;10.55;;;3.83;;
73859;SDS011;62197;51.632;13.700;2024-02-15T03:30:46;9.77;;;4.32;;
73859;SDS011;62197;51.632;13.700;2024-02-15T03:33:11;7.75;;;3.80;;
73859;SDS011;62197;51.632;13.700;2024-02-15T03:35:38;7.63;;;3.63;;
73859;SDS011;62197;51.632;13.700;2024-02-15T03:38:04;6.95;;;3.67;;
73859;SDS011;62197;51.632;13.700;2024-02-15T03:40:29;7.55;;;3.85;;
73859;SDS011;62197;51.632;13.700;2024-02-15T03:42:55;8.05;;;3.97;;
73859;SDS011;62197;51.632;13.700;2024-02-15T03:45:21;7.47;;;3.28;;
73859;SDS011;62197;51.632;13.700;2024-02-15T03:47:51;7.35;;;3.60;;
73859;SDS011;62197;51.632;13.700;2024-02-15T03:50:16;7.95;;;4.57;;
73859;SDS011;62197;51.632;13.700;2024-02-15T03:52:43;9.90;;;4.70;;
73859;SDS011;62197;51.632;13.700;2024-02-15T03:55:10;9.45;;;4.00;;
73859;SDS011;62197;51.632;13.700;2024-02-15T03:57:37;8.07;;;4.25;;
73859;SDS011;62197;51.632;13.700;2024-02-15T04:00:05;8.48;;;3.92;;
73859;SDS011;62197;51.632;13.700;2024-02-15T04:02:33;11.38;;;4.50;;
73859;SDS011;62197;51.632;13.700;2024-02-15T04:05:00;7.57;;;4.07;;
73859;SDS011;62197;51.632;13.700;2024-02-15T04:07:26;10.43;;;4.57;;
73859;SDS011;62197;51.632;13.700;2024-02-15T04:09:52;9.07;;;4.65;;
73859;SDS011;62197;51.632;13.700;2024-02-15T04:12:17;7.63;;;3.85;;
73859;SDS011;62197;51.632;13.700;2024-02-15T04:14:43;8.33;;;3.37;;
73859;SDS011;62197;51.632;13.700;2024-02-15T04:17:10;8.27;;;4.25;;
73859;SDS011;62197;51.632;13.700;2024-02-15T04:19:35;8.23;;;3.53;;
73859;SDS011;62197;51.632;13.700;2024-02-15T04:22:02;6.97;;;3.90;;
73859;SDS011;62197;51.632;13.700;2024-02-15T04:24:33;8.27;;;3.95;;
73859;SDS011;62197;51.632;13.700;2024-02-15T04:26:59;9.40;;;3.65;;
73859;SDS011;62197;51.632;13.700;2024-02-15T04:29:25;8.13;;;4.72;;
73859;SDS011;62197;51.632;13.700;2024-02-15T04:31:50;10.38;;;6.00;;
73859;SDS011;62197;51.632;13.700;2024-02-15T04:34:16;7.83;;;3.53;;
73859;SDS011;62197;51.632;13.700;2024-02-15T04:36:43;11.32;;;4.63;;
73859;SDS011;62197;51.632;13.700;2024-02-15T04:39:14;10.77;;;4.78;;
73859;SDS011;62197;51.632;13.700;2024-02-15T04:41:48;9.93;;;4.53;;
73859;SDS011;62197;51.632;13.700;2024-02-15T04:44:14;10.38;;;4.70;;
73859;SDS011;62197;51.632;13.700;2024-02-15T04:46:41;8.25;;;3.70;;
73859;SDS011;62197;51.632;13.700;2024-02-15T04:49:08;9.68;;;4.78;;
73859;SDS011;62197;51.632;13.700;2024-02-15T04:51:33;10.10;;;4.65;;
73859;SDS011;62197;51.632;13.700;2024-02-15T04:53:58;10.20;;;4.53;;
73859;SDS011;62197;51.632;13.700;2024-02-15T04:56:26;11.90;;;5.43;;
73859;SDS011;62197;51.632;13.700;2024-02-15T04:58:52;12.50;;;5.30;;
73859;SDS011;62197;51.632;13.700;2024-02-15T05:01:17;10.37;;;5.07;;
73859;SDS011;62197;51.632;13.700;2024-02-15T05:03:45;11.55;;;5.53;;
73859;SDS011;62197;51.632;13.700;2024-02-15T05:06:11;10.85;;;5.25;;
73859;SDS011;62197;51.632;13.700;2024-02-15T05:08:38;12.90;;;4.97;;
73859;SDS011;62197;51.632;13.700;2024-02-15T05:11:07;12.05;;;5.47;;
73859;SDS011;62197;51.632;13.700;2024-02-15T05:13:39;11.18;;;4.90;;
73859;SDS011;62197;51.632;13.700;2024-02-15T05:16:05;10.60;;;5.25;;
73859;SDS011;62197;51.632;13.700;2024-02-15T05:18:30;13.25;;;5.18;;
73859;SDS011;62197;51.632;13.700;2024-02-15T05:20:56;10.40;;;5.37;;
73859;SDS011;62197;51.632;13.700;2024-02-15T05:23:22;9.52;;;5.22;;
73859;SDS011;62197;51.632;13.700;2024-02-15T05:25:47;11.17;;;4.20;;
73859;SDS011;62197;51.632;13.700;2024-02-15T05:28:12;9.43;;;4.83;;
73859;SDS011;62197;51.632;13.700;2024-02-15T05:30:37;10.30;;;4.50;;
73859;SDS011;62197;51.632;13.700;2024-02-15T05:33:04;9.40;;;4.43;;
73859;SDS011;62197;51.632;13.700;2024-02-15T05:35:33;9.48;;;4.72;;
73859;SDS011;62197;51.632;13.700;2024-02-15T05:38:00;13.90;;;4.57;;
73859;SDS011;62197;51.632;13.700;2024-02-15T05:40:28;10.02;;;4.65;;
73859;SDS011;62197;51.632;13.700;2024-02-15T05:42:55;11.50;;;4.78;;
73859;SDS011;62197;51.632;13.700;2024-02-15T05:47:50;11.43;;;4.65;;
73859;SDS011;62197;51.632;13.700;2024-02-15T05:50:16;8.50;;;3.72;;
73859;SDS011;62197;51.632;13.700;2024-02-15T05:52:45;8.52;;;4.18;;
73859;SDS011;62197;51.632;13.700;2024-02-15T05:55:11;6.32;;;3.67;;
73859;SDS011;62197;51.632;13.700;2024-02-15T05:57:37;10.15;;;4.53;;
73859;SDS011;62197;51.632;13.700;2024-02-15T06:00:02;10.40;;;5.17;;
73859;SDS011;62197;51.632;13.700;2024-02-15T06:02:28;8.85;;;4.40;;
73859;SDS011;62197;51.632;13.700;2024-02-15T06:04:53;9.07;;;3.73;;
73859;SDS011;62197;51.632;13.700;2024-02-15T06:07:19;9.98;;;4.10;;
73859;SDS011;62197;51.632;13.700;2024-02-15T06:09:45;13.30;;;4.97;;
73859;SDS011;62197;51.632;13.700;2024-02-15T06:12:11;7.28;;;4.57;;
73859;SDS011;62197;51.632;13.700;2024-02-15T06:14:36;9.43;;;4.97;;
73859;SDS011;62197;51.632;13.700;2024-02-15T06:17:01;8.77;;;3.77;;
73859;SDS011;62197;51.632;13.700;2024-02-15T06:19:27;9.95;;;4.63;;
73859;SDS011;62197;51.632;13.700;2024-02-15T06:21:52;11.87;;;4.83;;
73859;SDS011;62197;51.632;13.700;2024-02-15T06:24:18;9.82;;;4.65;;
73859;SDS011;62197;51.632;13.700;2024-02-15T06:26:43;10.15;;;4.72;;
73859;SDS011;62197;51.632;13.700;2024-02-15T06:29:09;14.43;;;4.28;;
73859;SDS011;62197;51.632;13.700;2024-02-15T06:31:53;8.35;;;4.55;;
73859;SDS011;62197;51.632;13.700;2024-02-15T06:34:42;7.47;;;4.20;;
73859;SDS011;62197;51.632;13.700;2024-02-15T06:37:35;10.18;;;4.65;;
73859;SDS011;62197;51.632;13.700;2024-02-15T06:40:22;9.57;;;4.22;;
73859;SDS011;62197;51.632;13.700;2024-02-15T06:42:48;9.30;;;3.75;;
73859;SDS011;62197;51.632;13.700;2024-02-15T06:45:14;9.23;;;4.43;;
73859;SDS011;62197;51.632;13.700;2024-02-15T06:47:42;8.68;;;3.72;;
73859;SDS011;62197;51.632;13.700;2024-02-15T06:50:10;7.57;;;3.78;;
73859;SDS011;62197;51.632;13.700;2024-02-15T06:52:36;9.00;;;3.90;;
73859;SDS011;62197;51.632;13.700;2024-02-15T06:55:03;9.77;;;4.05;;
73859;SDS011;62197;51.632;13.700;2024-02-15T06:57:28;7.50;;;3.38;;
73859;SDS011;62197;51.632;13.700;2024-02-15T06:59:54;7.50;;;3.83;;
73859;SDS011;62197;51.632;13.700;2024-02-15T07:02:19;9.88;;;4.10;;
73859;SDS011;62197;51.632;13.700;2024-02-15T07:04:44;7.37;;;3.63;;
73859;SDS011;62197;51.632;13.700;2024-02-15T07:07:10;7.47;;;3.75;;
73859;SDS011;62197;51.632;13.700;2024-02-15T07:09:37;7.75;;;4.07;;
73859;SDS011;62197;51.632;13.700;2024-02-15T07:12:03;8.65;;;4.30;;
73859;SDS011;62197;51.632;13.700;2024-02-15T07:14:29;10.20;;;4.13;;
73859;SDS011;62197;51.632;13.700;2024-02-15T07:16:55;8.65;;;3.80;;
73859;SDS011;62197;51.632;13.700;2024-02-15T07:19:23;6.93;;;3.28;;
73859;SDS011;62197;51.632;13.700;2024-02-15T07:21:49;6.13;;;3.08;;
73859;SDS011;62197;51.632;13.700;2024-02-15T07:24:15;7.43;;;4.75;;
73859;SDS011;62197;51.632;13.700;2024-02-15T07:26:41;6.70;;;3.25;;
73859;SDS011;62197;51.632;13.700;2024-02-15T07:29:06;6.15;;;3.25;;
73859;SDS011;62197;51.632;13.700;2024-02-15T07:31:33;6.82;;;3.38;;
73859;SDS011;62197;51.632;13.700;2024-02-15T07:33:59;6.45;;;3.10;;
73859;SDS011;62197;51.632;13.700;2024-02-15T07:36:24;6.38;;;3.13;;
73859;SDS011;62197;51.632;13.700;2024-02-15T07:38:51;9.57;;;3.25;;
73859;SDS011;62197;51.632;13.700;2024-02-15T07:41:18;11.40;;;4.72;;
73859;SDS011;62197;51.632;13.700;2024-02-15T07:43:45;5.97;;;2.08;;
73859;SDS011;62197;51.632;13.700;2024-02-15T07:46:12;6.93;;;3.05;;
73859;SDS011;62197;51.632;13.700;2024-02-15T07:48:41;6.63;;;3.00;;
73859;SDS011;62197;51.632;13.700;2024-02-15T07:51:10;4.97;;;1.83;;
73859;SDS011;62197;51.632;13.700;2024-02-15T07:53:37;6.22;;;2.50;;
73859;SDS011;62197;51.632;13.700;2024-02-15T07:56:02;4.90;;;2.20;;
73859;SDS011;62197;51.632;13.700;2024-02-15T07:58:28;3.63;;;1.33;;
73859;SDS011;62197;51.632;13.700;2024-02-15T08:00:53;3.43;;;1.50;;
73859;SDS011;62197;51.632;13.700;2024-02-15T08:03:18;4.53;;;1.93;;
73859;SDS011;62197;51.632;13.700;2024-02-15T08:05:43;3.57;;;1.70;;
73859;SDS011;62197;51.632;13.700;2024-02-15T08:08:09;4.50;;;1.50;;
73859;SDS011;62197;51.632;13.700;2024-02-15T08:10:34;3.57;;;1.43;;
73859;SDS011;62197;51.632;13.700;2024-02-15T08:12:59;3.60;;;1.50;;
73859;SDS011;62197;51.632;13.700;2024-02-15T08:15:25;3.33;;;1.20;;
73859;SDS011;62197;51.632;13.700;2024-02-15T08:17:52;3.28;;;1.17;;
73859;SDS011;62197;51.632;13.700;2024-02-15T08:20:20;3.28;;;1.30;;
73859;SDS011;62197;51.632;13.700;2024-02-15T08:22:46;2.67;;;1.02;;
73859;SDS011;62197;51.632;13.700;2024-02-15T08:25:12;3.45;;;1.50;;
73859;SDS011;62197;51.632;13.700;2024-02-15T08:27:40;3.25;;;1.52;;
73859;SDS011;62197;51.632;13.700;2024-02-15T08:30:09;3.03;;;1.38;;
73859;SDS011;62197;51.632;13.700;2024-02-15T08:32:38;5.55;;;1.60;;
73859;SDS011;62197;51.632;13.700;2024-02-15T08:35:04;3.67;;;1.52;;
73859;SDS011;62197;51.632;13.700;2024-02-15T08:37:31;2.90;;;1.10;;
73859;SDS011;62197;51.632;13.700;2024-02-15T08:39:59;2.80;;;1.00;;
73859;SDS011;62197;51.632;13.700;2024-02-15T08:42:24;2.15;;;1.05;;
73859;SDS011;62197;51.632;13.700;2024-02-15T08:44:50;2.35;;;0.88;;
73859;SDS011;62197;51.632;13.700;2024-02-15T08:47:16;2.17;;;1.00;;
73859;SDS011;62197;51.632;13.700;2024-02-15T08:49:41;2.43;;;0.90;;
73859;SDS011;62197;51.632;13.700;2024-02-15T08:52:07;3.03;;;0.90;;
73859;SDS011;62197;51.632;13.700;2024-02-15T08:54:35;2.53;;;1.17;;
73859;SDS011;62197;51.632;13.700;2024-02-15T08:57:03;3.92;;;0.90;;
73859;SDS011;62197;51.632;13.700;2024-02-15T08:59:29;1.45;;;0.73;;
73859;SDS011;62197;51.632;13.700;2024-02-15T09:01:55;3.10;;;1.13;;
73859;SDS011;62197;51.632;13.700;2024-02-15T09:04:21;2.17;;;0.80;;
73859;SDS011;62197;51.632;13.700;2024-02-15T09:06:49;1.95;;;0.70;;
73859;SDS011;62197;51.632;13.700;2024-02-15T09:09:14;2.05;;;1.00;;
73859;SDS011;62197;51.632;13.700;2024-02-15T09:11:40;2.13;;;1.30;;
73859;SDS011;62197;51.632;13.700;2024-02-15T09:14:05;3.42;;;1.13;;
73859;SDS011;62197;51.632;13.700;2024-02-15T09:16:31;2.00;;;0.63;;
73859;SDS011;62197;51.632;13.700;2024-02-15T09:18:56;1.73;;;0.73;;
73859;SDS011;62197;51.632;13.700;2024-02-15T09:21:25;2.38;;;0.98;;
73859;SDS011;62197;51.632;13.700;2024-02-15T09:23:53;2.05;;;0.73;;
73859;SDS011;62197;51.632;13.700;2024-02-15T09:26:18;3.88;;;1.17;;
73859;SDS011;62197;51.632;13.700;2024-02-15T09:28:44;1.75;;;0.75;;
73859;SDS011;62197;51.632;13.700;2024-02-15T09:31:12;1.53;;;0.70;;
73859;SDS011;62197;51.632;13.700;2024-02-15T09:33:38;3.10;;;1.25;;
73859;SDS011;62197;51.632;13.700;2024-02-15T09:36:04;2.67;;;1.75;;
73859;SDS011;62197;51.632;13.700;2024-02-15T09:38:29;1.92;;;0.68;;
73859;SDS011;62197;51.632;13.700;2024-02-15T09:40:55;1.87;;;0.90;;
73859;SDS011;62197;51.632;13.700;2024-02-15T09:43:20;3.17;;;0.82;;
73859;SDS011;62197;51.632;13.700;2024-02-15T09:45:46;2.92;;;0.90;;
73859;SDS011;62197;51.632;13.700;2024-02-15T09:48:12;2.53;;;0.98;;
73859;SDS011;62197;51.632;13.700;2024-02-15T09:50:41;3.42;;;0.85;;
73859;SDS011;62197;51.632;13.700;2024-02-15T09:53:07;1.67;;;0.75;;
73859;SDS011;62197;51.632;13.700;2024-02-15T09:55:34;1.80;;;0.80;;
73859;SDS011;62197;51.632;13.700;2024-02-15T09:58:00;4.28;;;1.15;;
73859;SDS011;62197;51.632;13.700;2024-02-15T10:00:26;3.03;;;0.77;;
73859;SDS011;62197;51.632;13.700;2024-02-15T10:02:51;1.80;;;0.60;;
73859;SDS011;62197;51.632;13.700;2024-02-15T10:05:20;2.03;;;1.02;;
73859;SDS011;62197;51.632;13.700;2024-02-15T10:07:47;1.75;;;0.77;;
73859;SDS011;62197;51.632;13.700;2024-02-15T10:10:14;3.78;;;0.68;;
73859;SDS011;62197;51.632;13.700;2024-02-15T10:12:44;2.13;;;1.05;;
73859;SDS011;62197;51.632;13.700;2024-02-15T10:15:14;2.50;;;0.90;;
73859;SDS011;62197;51.632;13.700;2024-02-15T10:18:06;2.45;;;1.40;;
73859;SDS011;62197;51.632;13.700;2024-02-15T10:20:41;3.95;;;2.20;;
73859;SDS011;62197;51.632;13.700;2024-02-15T10:23:15;2.75;;;1.20;;
73859;SDS011;62197;51.632;13.700;2024-02-15T10:25:44;1.83;;;0.95;;
73859;SDS011;62197;51.632;13.700;2024-02-15T10:28:12;3.67;;;0.80;;
73859;SDS011;62197;51.632;13.700;2024-02-15T10:30:41;2.88;;;0.80;;
73859;SDS011;62197;51.632;13.700;2024-02-15T10:33:08;2.42;;;1.13;;
73859;SDS011;62197;51.632;13.700;2024-02-15T10:35:34;3.78;;;1.40;;
73859;SDS011;62197;51.632;13.700;2024-02-15T10:40:33;2.28;;;1.23;;
73859;SDS011;62197;51.632;13.700;2024-02-15T10:42:58;3.22;;;0.90;;
73859;SDS011;62197;51.632;13.700;2024-02-15T10:45:24;4.95;;;1.08;;
73859;SDS011;62197;51.632;13.700;2024-02-15T10:47:50;4.57;;;1.10;;
73859;SDS011;62197;51.632;13.700;2024-02-15T10:50:16;3.03;;;1.13;;
73859;SDS011;62197;51.632;13.700;2024-02-15T10:53:08;2.33;;;0.88;;
73859;SDS011;62197;51.632;13.700;2024-02-15T10:55:37;3.90;;;0.93;;
73859;SDS011;62197;51.632;13.700;2024-02-15T10:58:05;2.60;;;1.10;;
73859;SDS011;62197;51.632;13.700;2024-02-15T11:00:34;2.00;;;1.10;;
73859;SDS011;62197;51.632;13.700;2024-02-15T11:05:34;2.17;;;1.17;;
73859;SDS011;62197;51.632;13.700;2024-02-15T11:08:10;2.80;;;1.00;;
73859;SDS011;62197;51.632;13.700;2024-02-15T11:10:37;2.88;;;1.20;;
73859;SDS011;62197;51.632;13.700;2024-02-15T11:13:03;2.95;;;1.13;;
73859;SDS011;62197;51.632;13.700;2024-02-15T11:18:00;2.38;;;1.25;;
73859;SDS011;62197;51.632;13.700;2024-02-15T11:22:57;2.30;;;1.13;;
73859;SDS011;62197;51.632;13.700;2024-02-15T11:25:38;3.22;;;1.15;;
73859;SDS011;62197;51.632;13.700;2024-02-15T11:30:48;3.33;;;1.10;;
73859;SDS011;62197;51.632;13.700;2024-02-15T11:33:32;2.72;;;1.25;;
73859;SDS011;62197;51.632;13.700;2024-02-15T11:38:28;2.85;;;1.40;;
73859;SDS011;62197;51.632;13.700;2024-02-15T11:46:12;2.60;;;1.02;;
73859;SDS011;62197;51.632;13.700;2024-02-15T11:48:39;3.28;;;0.90;;
73859;SDS011;62197;51.632;13.700;2024-02-15T11:51:05;2.55;;;0.85;;
73859;SDS011;62197;51.632;13.700;2024-02-15T11:53:31;4.63;;;0.90;;
73859;SDS011;62197;51.632;13.700;2024-02-15T11:56:00;3.47;;;1.38;;
73859;SDS011;62197;51.632;13.700;2024-02-15T11:58:25;4.00;;;0.82;;
73859;SDS011;62197;51.632;13.700;2024-02-15T12:00:59;2.00;;;1.10;;
73859;SDS011;62197;51.632;13.700;2024-02-15T12:03:44;4.60;;;1.20;;
73859;SDS011;62197;51.632;13.700;2024-02-15T12:06:27;2.80;;;1.17;;
73859;SDS011;62197;51.632;13.700;2024-02-15T12:09:11;2.70;;;1.15;;
73859;SDS011;62197;51.632;13.700;2024-02-15T12:12:03;2.63;;;1.25;;
73859;SDS011;62197;51.632;13.700;2024-02-15T12:14:47;2.70;;;0.85;;
73859;SDS011;62197;51.632;13.700;2024-02-15T12:17:30;2.65;;;1.10;;
73859;SDS011;62197;51.632;13.700;2024-02-15T12:20:15;2.28;;;0.95;;
73859;SDS011;62197;51.632;13.700;2024-02-15T12:22:43;2.50;;;0.77;;
73859;SDS011;62197;51.632;13.700;2024-02-15T12:25:15;4.43;;;1.33;;
73859;SDS011;62197;51.632;13.700;2024-02-15T12:27:42;2.50;;;1.08;;
73859;SDS011;62197;51.632;13.700;2024-02-15T12:30:12;2.42;;;0.73;;
73859;SDS011;62197;51.632;13.700;2024-02-15T12:32:39;2.75;;;1.17;;
73859;SDS011;62197;51.632;13.700;2024-02-15T12:35:13;2.07;;;0.90;;
73859;SDS011;62197;51.632;13.700;2024-02-15T12:40:29;2.65;;;0.88;;
73859;SDS011;62197;51.632;13.700;2024-02-15T12:45:21;2.27;;;0.60;;
73859;SDS011;62197;51.632;13.700;2024-02-15T12:47:52;8.00;;;1.15;;
73859;SDS011;62197;51.632;13.700;2024-02-15T12:50:19;2.10;;;1.15;;
73859;SDS011;62197;51.632;13.700;2024-02-15T12:52:46;4.63;;;1.52;;
73859;SDS011;62197;51.632;13.700;2024-02-15T12:57:44;2.55;;;0.98;;
73859;SDS011;62197;51.632;13.700;2024-02-15T13:00:13;2.25;;;1.08;;
73859;SDS011;62197;51.632;13.700;2024-02-15T13:02:43;2.72;;;1.20;;
73859;SDS011;62197;51.632;13.700;2024-02-15T13:05:12;2.60;;;1.40;;
73859;SDS011;62197;51.632;13.700;2024-02-15T13:07:38;2.40;;;1.50;;
73859;SDS011;62197;51.632;13.700;2024-02-15T13:10:05;2.15;;;0.98;;
73859;SDS011;62197;51.632;13.700;2024-02-15T13:12:34;2.28;;;1.27;;
73859;SDS011;62197;51.632;13.700;2024-02-15T13:15:01;5.07;;;1.25;;
73859;SDS011;62197;51.632;13.700;2024-02-15T13:17:36;3.72;;;1.48;;
73859;SDS011;62197;51.632;13.700;2024-02-15T13:20:01;4.10;;;0.77;;
73859;SDS011;62197;51.632;13.700;2024-02-15T13:22:33;2.20;;;0.82;;
73859;SDS011;62197;51.632;13.700;2024-02-15T13:27:28;2.03;;;1.10;;
73859;SDS011;62197;51.632;13.700;2024-02-15T13:29:53;2.55;;;0.70;;
73859;SDS011;62197;51.632;13.700;2024-02-15T13:32:19;3.77;;;1.13;;
73859;SDS011;62197;51.632;13.700;2024-02-15T13:34:47;3.03;;;1.33;;
73859;SDS011;62197;51.632;13.700;2024-02-15T13:37:16;2.08;;;0.95;;
73859;SDS011;62197;51.632;13.700;2024-02-15T13:39:45;2.65;;;0.80;;
73859;SDS011;62197;51.632;13.700;2024-02-15T13:42:14;3.85;;;1.25;;
73859;SDS011;62197;51.632;13.700;2024-02-15T13:44:40;3.38;;;1.17;;
73859;SDS011;62197;51.632;13.700;2024-02-15T13:47:05;3.50;;;1.35;;
73859;SDS011;62197;51.632;13.700;2024-02-15T13:49:31;5.05;;;2.08;;
73859;SDS011;62197;51.632;13.700;2024-02-15T13:51:57;3.17;;;1.35;;
73859;SDS011;62197;51.632;13.700;2024-02-15T13:54:27;5.10;;;0.98;;
73859;SDS011;62197;51.632;13.700;2024-02-15T13:56:53;1.30;;;0.50;;
73859;SDS011;62197;51.632;13.700;2024-02-15T13:59:19;1.55;;;1.00;;
73859;SDS011;62197;51.632;13.700;2024-02-15T14:01:45;1.93;;;1.10;;
73859;SDS011;62197;51.632;13.700;2024-02-15T14:04:10;2.97;;;0.98;;
73859;SDS011;62197;51.632;13.700;2024-02-15T14:06:36;1.85;;;0.75;;
73859;SDS011;62197;51.632;13.700;2024-02-15T14:09:04;2.45;;;1.10;;
73859;SDS011;62197;51.632;13.700;2024-02-15T14:11:30;4.22;;;1.08;;
73859;SDS011;62197;51.632;13.700;2024-02-15T14:13:56;4.40;;;1.13;;
73859;SDS011;62197;51.632;13.700;2024-02-15T14:16:23;2.90;;;0.98;;
73859;SDS011;62197;51.632;13.700;2024-02-15T14:18:49;3.10;;;1.13;;
73859;SDS011;62197;51.632;13.700;2024-02-15T14:21:15;2.65;;;1.30;;
73859;SDS011;62197;51.632;13.700;2024-02-15T14:23:41;3.05;;;1.48;;
73859;SDS011;62197;51.632;13.700;2024-02-15T14:26:07;2.90;;;1.00;;
73859;SDS011;62197;51.632;13.700;2024-02-15T14:28:32;4.20;;;1.00;;
73859;SDS011;62197;51.632;13.700;2024-02-15T14:30:59;2.63;;;1.20;;
73859;SDS011;62197;51.632;13.700;2024-02-15T14:33:43;5.30;;;1.77;;
73859;SDS011;62197;51.632;13.700;2024-02-15T14:36:08;6.18;;;1.35;;
73859;SDS011;62197;51.632;13.700;2024-02-15T14:38:34;2.72;;;0.93;;
73859;SDS011;62197;51.632;13.700;2024-02-15T14:40:59;3.53;;;1.27;;
73859;SDS011;62197;51.632;13.700;2024-02-15T14:43:27;4.25;;;1.50;;
73859;SDS011;62197;51.632;13.700;2024-02-15T14:45:53;4.63;;;1.67;;
73859;SDS011;62197;51.632;13.700;2024-02-15T14:48:19;3.70;;;1.58;;
73859;SDS011;62197;51.632;13.700;2024-02-15T14:50:45;3.70;;;1.77;;
73859;SDS011;62197;51.632;13.700;2024-02-15T14:53:12;5.30;;;2.15;;
73859;SDS011;62197;51.632;13.700;2024-02-15T14:55:38;4.60;;;2.53;;
73859;SDS011;62197;51.632;13.700;2024-02-15T14:58:07;4.18;;;1.90;;
73859;SDS011;62197;51.632;13.700;2024-02-15T15:00:35;6.35;;;1.77;;
73859;SDS011;62197;51.632;13.700;2024-02-15T15:03:02;4.18;;;1.75;;
73859;SDS011;62197;51.632;13.700;2024-02-15T15:05:28;4.05;;;1.77;;
73859;SDS011;62197;51.632;13.700;2024-02-15T15:08:12;4.28;;;1.60;;
73859;SDS011;62197;51.632;13.700;2024-02-15T15:10:56;5.30;;;2.08;;